sensor_id;sensor_type;location;lat;lon;timestamp;P1;durP1;ratioP1;P2;durP2;ratioP2
66559;SDS011;53413;49.878;8.142;2023-04-02T00:01:54;5.38;;;2.42;;
66559;SDS011;53413;49.878;8.142;2023-04-02T00:04:20;5.50;;;2.57;;
66559;SDS011;53413;49.878;8.142;2023-04-02T00:07:17;6.32;;;2.65;;
66559;SDS011;53413;49.878;8.142;2023-04-02T00:09:54;5.77;;;2.50;;
66559;SDS011;53413;49.878;8.142;2023-04-02T00:12:21;6.35;;;2.50;;
66559;SDS011;53413;49.878;8.142;2023-04-02T00:14:48;6.63;;;2.90;;
66559;SDS011;53413;49.878;8.142;2023-04-02T00:17:16;5.33;;;2.60;;
66559;SDS011;53413;49.878;8.142;2023-04-02T00:19:47;5.38;;;2.50;;
66559;SDS011;53413;49.878;8.142;2023-04-02T00:22:17;5.75;;;2.33;;
66559;SDS011;53413;49.878;8.142;2023-04-02T00:24:45;4.88;;;2.20;;
66559;SDS011;53413;49.878;8.142;2023-04-02T00:27:13;4.90;;;1.85;;
66559;SDS011;53413;49.878;8.142;2023-04-02T00:29:49;4.37;;;1.90;;
66559;SDS011;53413;49.878;8.142;2023-04-02T00:32:17;4.68;;;1.70;;
66559;SDS011;53413;49.878;8.142;2023-04-02T00:34:46;3.95;;;1.50;;
66559;SDS011;53413;49.878;8.142;2023-04-02T00:37:21;4.13;;;1.77;;
66559;SDS011;53413;49.878;8.142;2023-04-02T00:39:59;4.43;;;1.50;;
66559;SDS011;53413;49.878;8.142;2023-04-02T00:42:30;3.90;;;1.42;;
66559;SDS011;53413;49.878;8.142;2023-04-02T00:44:55;4.05;;;1.33;;
66559;SDS011;53413;49.878;8.142;2023-04-02T00:50:00;3.58;;;1.38;;
66559;SDS011;53413;49.878;8.142;2023-04-02T00:52:42;4.03;;;1.38;;
66559;SDS011;53413;49.878;8.142;2023-04-02T01:00:51;4.83;;;1.60;;
66559;SDS011;53413;49.878;8.142;2023-04-02T01:22:08;4.57;;;1.85;;
66559;SDS011;53413;49.878;8.142;2023-04-02T01:24:42;5.45;;;1.67;;
66559;SDS011;53413;49.878;8.142;2023-04-02T01:27:31;5.13;;;1.60;;
66559;SDS011;53413;49.878;8.142;2023-04-02T01:30:04;4.22;;;1.60;;
66559;SDS011;53413;49.878;8.142;2023-04-02T01:32:31;4.30;;;1.50;;
66559;SDS011;53413;49.878;8.142;2023-04-02T01:34:58;3.90;;;1.60;;
66559;SDS011;53413;49.878;8.142;2023-04-02T01:37:34;4.60;;;1.63;;
66559;SDS011;53413;49.878;8.142;2023-04-02T01:45:26;3.95;;;1.52;;
66559;SDS011;53413;49.878;8.142;2023-04-02T01:47:52;3.72;;;1.58;;
66559;SDS011;53413;49.878;8.142;2023-04-02T01:52:43;3.93;;;1.40;;
66559;SDS011;53413;49.878;8.142;2023-04-02T01:55:13;3.70;;;1.40;;
66559;SDS011;53413;49.878;8.142;2023-04-02T01:57:44;3.57;;;1.40;;
66559;SDS011;53413;49.878;8.142;2023-04-02T02:00:15;4.22;;;1.52;;
66559;SDS011;53413;49.878;8.142;2023-04-02T02:02:43;4.05;;;1.70;;
66559;SDS011;53413;49.878;8.142;2023-04-02T02:05:12;5.10;;;1.70;;
66559;SDS011;53413;49.878;8.142;2023-04-02T02:07:40;5.03;;;1.83;;
66559;SDS011;53413;49.878;8.142;2023-04-02T02:10:06;4.43;;;1.60;;
66559;SDS011;53413;49.878;8.142;2023-04-02T02:12:38;3.72;;;1.52;;
66559;SDS011;53413;49.878;8.142;2023-04-02T02:15:06;4.47;;;1.60;;
66559;SDS011;53413;49.878;8.142;2023-04-02T02:17:41;4.35;;;1.65;;
66559;SDS011;53413;49.878;8.142;2023-04-02T02:20:07;3.47;;;1.43;;
66559;SDS011;53413;49.878;8.142;2023-04-02T02:22:35;3.83;;;1.70;;
66559;SDS011;53413;49.878;8.142;2023-04-02T02:25:04;5.15;;;1.63;;
66559;SDS011;53413;49.878;8.142;2023-04-02T02:32:54;3.90;;;1.70;;
66559;SDS011;53413;49.878;8.142;2023-04-02T02:35:43;4.78;;;1.67;;
66559;SDS011;53413;49.878;8.142;2023-04-02T02:41:02;4.78;;;2.00;;
66559;SDS011;53413;49.878;8.142;2023-04-02T02:43:31;4.07;;;1.73;;
66559;SDS011;53413;49.878;8.142;2023-04-02T02:45:58;4.50;;;2.00;;
66559;SDS011;53413;49.878;8.142;2023-04-02T02:48:33;5.50;;;2.10;;
66559;SDS011;53413;49.878;8.142;2023-04-02T02:51:01;4.30;;;2.08;;
66559;SDS011;53413;49.878;8.142;2023-04-02T02:53:36;4.28;;;1.80;;
66559;SDS011;53413;49.878;8.142;2023-04-02T02:56:10;4.72;;;2.15;;
66559;SDS011;53413;49.878;8.142;2023-04-02T02:58:36;5.37;;;2.10;;
66559;SDS011;53413;49.878;8.142;2023-04-02T03:01:02;4.97;;;2.08;;
66559;SDS011;53413;49.878;8.142;2023-04-02T03:03:28;4.90;;;2.03;;
66559;SDS011;53413;49.878;8.142;2023-04-02T03:05:59;4.38;;;2.00;;
66559;SDS011;53413;49.878;8.142;2023-04-02T03:08:36;5.03;;;2.20;;
66559;SDS011;53413;49.878;8.142;2023-04-02T03:11:10;4.70;;;1.80;;
66559;SDS011;53413;49.878;8.142;2023-04-02T03:13:41;4.55;;;1.90;;
66559;SDS011;53413;49.878;8.142;2023-04-02T03:16:19;4.60;;;2.00;;
66559;SDS011;53413;49.878;8.142;2023-04-02T03:21:47;4.80;;;1.90;;
66559;SDS011;53413;49.878;8.142;2023-04-02T03:24:28;4.80;;;2.00;;
66559;SDS011;53413;49.878;8.142;2023-04-02T03:27:02;5.00;;;2.08;;
66559;SDS011;53413;49.878;8.142;2023-04-02T03:29:33;5.33;;;2.10;;
66559;SDS011;53413;49.878;8.142;2023-04-02T03:32:06;5.45;;;2.03;;
66559;SDS011;53413;49.878;8.142;2023-04-02T03:34:41;4.93;;;2.05;;
66559;SDS011;53413;49.878;8.142;2023-04-02T03:39:41;5.07;;;2.28;;
66559;SDS011;53413;49.878;8.142;2023-04-02T03:42:21;4.87;;;2.00;;
66559;SDS011;53413;49.878;8.142;2023-04-02T03:45:04;4.95;;;2.30;;
66559;SDS011;53413;49.878;8.142;2023-04-02T03:53:24;4.65;;;2.10;;
66559;SDS011;53413;49.878;8.142;2023-04-02T03:55:51;5.67;;;2.10;;
66559;SDS011;53413;49.878;8.142;2023-04-02T03:58:20;5.32;;;2.22;;
66559;SDS011;53413;49.878;8.142;2023-04-02T04:04:15;4.80;;;1.90;;
66559;SDS011;53413;49.878;8.142;2023-04-02T04:06:44;4.40;;;1.70;;
66559;SDS011;53413;49.878;8.142;2023-04-02T04:12:38;4.28;;;1.80;;
66559;SDS011;53413;49.878;8.142;2023-04-02T04:14:56;5.75;;;1.60;;
66559;SDS011;53413;49.878;8.142;2023-04-02T04:17:32;4.03;;;1.38;;
66559;SDS011;53413;49.878;8.142;2023-04-02T04:20:19;3.60;;;1.60;;
66559;SDS011;53413;49.878;8.142;2023-04-02T04:22:48;3.90;;;1.60;;
66559;SDS011;53413;49.878;8.142;2023-04-02T04:25:28;3.97;;;1.50;;
66559;SDS011;53413;49.878;8.142;2023-04-02T04:30:52;4.20;;;1.70;;
66559;SDS011;53413;49.878;8.142;2023-04-02T04:33:25;3.80;;;1.60;;
66559;SDS011;53413;49.878;8.142;2023-04-02T04:35:58;4.93;;;1.63;;
66559;SDS011;53413;49.878;8.142;2023-04-02T04:41:00;4.28;;;1.90;;
66559;SDS011;53413;49.878;8.142;2023-04-02T04:46:15;4.13;;;1.75;;
66559;SDS011;53413;49.878;8.142;2023-04-02T04:51:26;4.30;;;2.10;;
66559;SDS011;53413;49.878;8.142;2023-04-02T04:53:57;5.57;;;2.08;;
66559;SDS011;53413;49.878;8.142;2023-04-02T04:56:25;5.22;;;2.13;;
66559;SDS011;53413;49.878;8.142;2023-04-02T05:01:26;5.90;;;2.50;;
66559;SDS011;53413;49.878;8.142;2023-04-02T05:06:42;6.03;;;2.28;;
66559;SDS011;53413;49.878;8.142;2023-04-02T05:09:17;4.75;;;2.25;;
66559;SDS011;53413;49.878;8.142;2023-04-02T05:17:19;5.35;;;2.13;;
66559;SDS011;53413;49.878;8.142;2023-04-02T05:20:34;4.53;;;2.08;;
66559;SDS011;53413;49.878;8.142;2023-04-02T05:22:46;5.68;;;2.15;;
66559;SDS011;53413;49.878;8.142;2023-04-02T05:25:27;4.75;;;2.10;;
66559;SDS011;53413;49.878;8.142;2023-04-02T05:27:58;5.20;;;2.40;;
66559;SDS011;53413;49.878;8.142;2023-04-02T05:30:45;4.90;;;2.10;;
66559;SDS011;53413;49.878;8.142;2023-04-02T05:33:23;5.00;;;2.10;;
66559;SDS011;53413;49.878;8.142;2023-04-02T05:35:54;5.57;;;2.50;;
66559;SDS011;53413;49.878;8.142;2023-04-02T05:38:25;5.00;;;2.30;;
66559;SDS011;53413;49.878;8.142;2023-04-02T05:41:16;4.80;;;2.30;;
66559;SDS011;53413;49.878;8.142;2023-04-02T05:44:11;5.35;;;2.55;;
66559;SDS011;53413;49.878;8.142;2023-04-02T05:46:48;6.13;;;2.60;;
66559;SDS011;53413;49.878;8.142;2023-04-02T05:52:11;5.43;;;2.40;;
66559;SDS011;53413;49.878;8.142;2023-04-02T05:55:18;5.20;;;2.20;;
66559;SDS011;53413;49.878;8.142;2023-04-02T05:57:51;4.60;;;2.00;;
66559;SDS011;53413;49.878;8.142;2023-04-02T06:00:38;6.03;;;2.30;;
66559;SDS011;53413;49.878;8.142;2023-04-02T06:03:23;5.43;;;2.60;;
66559;SDS011;53413;49.878;8.142;2023-04-02T06:05:51;5.15;;;2.47;;
66559;SDS011;53413;49.878;8.142;2023-04-02T06:08:22;5.77;;;2.60;;
66559;SDS011;53413;49.878;8.142;2023-04-02T06:10:55;6.25;;;2.83;;
66559;SDS011;53413;49.878;8.142;2023-04-02T06:13:22;5.43;;;2.75;;
66559;SDS011;53413;49.878;8.142;2023-04-02T06:15:48;6.03;;;2.70;;
66559;SDS011;53413;49.878;8.142;2023-04-02T06:18:14;5.80;;;2.67;;
66559;SDS011;53413;49.878;8.142;2023-04-02T06:20:45;6.45;;;2.67;;
66559;SDS011;53413;49.878;8.142;2023-04-02T06:23:18;5.13;;;2.70;;
66559;SDS011;53413;49.878;8.142;2023-04-02T06:25:47;7.27;;;3.00;;
66559;SDS011;53413;49.878;8.142;2023-04-02T06:28:19;5.80;;;2.70;;
66559;SDS011;53413;49.878;8.142;2023-04-02T06:30:51;5.97;;;2.78;;
66559;SDS011;53413;49.878;8.142;2023-04-02T06:33:21;6.10;;;2.97;;
66559;SDS011;53413;49.878;8.142;2023-04-02T06:35:47;6.83;;;3.80;;
66559;SDS011;53413;49.878;8.142;2023-04-02T06:38:19;6.82;;;3.40;;
66559;SDS011;53413;49.878;8.142;2023-04-02T06:40:54;5.87;;;2.90;;
66559;SDS011;53413;49.878;8.142;2023-04-02T06:46:02;5.57;;;2.70;;
66559;SDS011;53413;49.878;8.142;2023-04-02T06:48:34;5.03;;;2.53;;
66559;SDS011;53413;49.878;8.142;2023-04-02T06:53:39;4.83;;;2.30;;
66559;SDS011;53413;49.878;8.142;2023-04-02T06:56:11;5.30;;;2.42;;
66559;SDS011;53413;49.878;8.142;2023-04-02T06:58:57;5.03;;;2.00;;
66559;SDS011;53413;49.878;8.142;2023-04-02T07:01:24;4.63;;;2.10;;
66559;SDS011;53413;49.878;8.142;2023-04-02T07:03:53;4.70;;;2.20;;
66559;SDS011;53413;49.878;8.142;2023-04-02T07:06:19;5.32;;;2.58;;
66559;SDS011;53413;49.878;8.142;2023-04-02T07:08:46;4.85;;;2.25;;
66559;SDS011;53413;49.878;8.142;2023-04-02T07:11:13;4.80;;;2.35;;
66559;SDS011;53413;49.878;8.142;2023-04-02T07:13:40;6.47;;;3.20;;
66559;SDS011;53413;49.878;8.142;2023-04-02T07:16:11;5.32;;;2.50;;
66559;SDS011;53413;49.878;8.142;2023-04-02T07:18:40;5.00;;;2.38;;
66559;SDS011;53413;49.878;8.142;2023-04-02T07:21:05;4.68;;;2.25;;
66559;SDS011;53413;49.878;8.142;2023-04-02T07:23:31;4.57;;;2.20;;
66559;SDS011;53413;49.878;8.142;2023-04-02T07:25:56;5.33;;;2.30;;
66559;SDS011;53413;49.878;8.142;2023-04-02T07:28:22;4.50;;;2.10;;
66559;SDS011;53413;49.878;8.142;2023-04-02T07:30:48;4.82;;;2.20;;
66559;SDS011;53413;49.878;8.142;2023-04-02T07:33:19;5.20;;;2.30;;
66559;SDS011;53413;49.878;8.142;2023-04-02T07:35:47;5.80;;;2.47;;
66559;SDS011;53413;49.878;8.142;2023-04-02T07:38:13;5.05;;;2.10;;
66559;SDS011;53413;49.878;8.142;2023-04-02T07:40:39;4.50;;;2.30;;
66559;SDS011;53413;49.878;8.142;2023-04-02T07:43:05;5.05;;;2.00;;
66559;SDS011;53413;49.878;8.142;2023-04-02T07:45:31;4.37;;;2.20;;
66559;SDS011;53413;49.878;8.142;2023-04-02T07:47:57;4.60;;;2.08;;
66559;SDS011;53413;49.878;8.142;2023-04-02T07:50:27;5.13;;;2.20;;
66559;SDS011;53413;49.878;8.142;2023-04-02T07:52:53;4.90;;;2.10;;
66559;SDS011;53413;49.878;8.142;2023-04-02T07:55:18;5.40;;;2.30;;
66559;SDS011;53413;49.878;8.142;2023-04-02T07:57:47;5.27;;;2.33;;
66559;SDS011;53413;49.878;8.142;2023-04-02T08:00:13;5.55;;;2.20;;
66559;SDS011;53413;49.878;8.142;2023-04-02T08:02:39;2.78;;;0.90;;
66559;SDS011;53413;49.878;8.142;2023-04-02T08:05:05;2.87;;;0.80;;
66559;SDS011;53413;49.878;8.142;2023-04-02T08:07:31;2.40;;;0.60;;
66559;SDS011;53413;49.878;8.142;2023-04-02T08:09:57;2.42;;;0.65;;
66559;SDS011;53413;49.878;8.142;2023-04-02T08:12:23;2.20;;;0.60;;
66559;SDS011;53413;49.878;8.142;2023-04-02T08:14:48;2.67;;;0.80;;
66559;SDS011;53413;49.878;8.142;2023-04-02T08:17:13;3.37;;;0.80;;
66559;SDS011;53413;49.878;8.142;2023-04-02T08:19:40;2.78;;;0.80;;
66559;SDS011;53413;49.878;8.142;2023-04-02T08:22:06;1.80;;;0.60;;
66559;SDS011;53413;49.878;8.142;2023-04-02T08:24:31;2.20;;;0.60;;
66559;SDS011;53413;49.878;8.142;2023-04-02T08:26:57;2.17;;;0.60;;
66559;SDS011;53413;49.878;8.142;2023-04-02T08:29:22;2.57;;;0.80;;
66559;SDS011;53413;49.878;8.142;2023-04-02T08:31:48;2.42;;;0.65;;
66559;SDS011;53413;49.878;8.142;2023-04-02T08:34:13;2.30;;;0.60;;
66559;SDS011;53413;49.878;8.142;2023-04-02T08:36:39;2.20;;;0.70;;
66559;SDS011;53413;49.878;8.142;2023-04-02T08:39:08;2.80;;;0.70;;
66559;SDS011;53413;49.878;8.142;2023-04-02T08:41:36;2.20;;;0.60;;
66559;SDS011;53413;49.878;8.142;2023-04-02T08:44:18;3.08;;;0.80;;
66559;SDS011;53413;49.878;8.142;2023-04-02T08:46:54;2.55;;;0.60;;
66559;SDS011;53413;49.878;8.142;2023-04-02T08:49:28;2.22;;;0.60;;
66559;SDS011;53413;49.878;8.142;2023-04-02T08:52:03;2.47;;;0.60;;
66559;SDS011;53413;49.878;8.142;2023-04-02T08:54:32;2.80;;;0.80;;
66559;SDS011;53413;49.878;8.142;2023-04-02T08:57:05;2.15;;;0.60;;
66559;SDS011;53413;49.878;8.142;2023-04-02T08:59:45;2.60;;;0.70;;
66559;SDS011;53413;49.878;8.142;2023-04-02T09:02:26;2.85;;;0.70;;
66559;SDS011;53413;49.878;8.142;2023-04-02T09:04:58;2.60;;;0.80;;
66559;SDS011;53413;49.878;8.142;2023-04-02T09:07:29;2.83;;;0.90;;
66559;SDS011;53413;49.878;8.142;2023-04-02T09:09:57;2.80;;;0.70;;
66559;SDS011;53413;49.878;8.142;2023-04-02T09:12:23;2.10;;;0.60;;
66559;SDS011;53413;49.878;8.142;2023-04-02T09:17:35;2.17;;;0.70;;
66559;SDS011;53413;49.878;8.142;2023-04-02T09:20:21;2.05;;;0.50;;
66559;SDS011;53413;49.878;8.142;2023-04-02T09:22:50;3.90;;;0.87;;
66559;SDS011;53413;49.878;8.142;2023-04-02T09:25:19;2.33;;;0.70;;
66559;SDS011;53413;49.878;8.142;2023-04-02T09:27:51;3.08;;;0.80;;
66559;SDS011;53413;49.878;8.142;2023-04-02T09:33:04;2.90;;;0.63;;
66559;SDS011;53413;49.878;8.142;2023-04-02T09:35:40;2.20;;;0.70;;
66559;SDS011;53413;49.878;8.142;2023-04-02T09:48:35;2.50;;;0.83;;
66559;SDS011;53413;49.878;8.142;2023-04-02T09:53:29;3.00;;;0.90;;
66559;SDS011;53413;49.878;8.142;2023-04-02T09:56:14;2.08;;;0.55;;
66559;SDS011;53413;49.878;8.142;2023-04-02T10:01:40;2.30;;;0.70;;
66559;SDS011;53413;49.878;8.142;2023-04-02T10:04:29;2.28;;;0.60;;
66559;SDS011;53413;49.878;8.142;2023-04-02T10:06:54;2.20;;;0.70;;
66559;SDS011;53413;49.878;8.142;2023-04-02T10:09:28;2.30;;;0.70;;
66559;SDS011;53413;49.878;8.142;2023-04-02T10:11:56;2.85;;;0.80;;
66559;SDS011;53413;49.878;8.142;2023-04-02T10:14:26;3.33;;;1.00;;
66559;SDS011;53413;49.878;8.142;2023-04-02T10:19:41;2.95;;;1.05;;
66559;SDS011;53413;49.878;8.142;2023-04-02T10:22:15;2.97;;;0.98;;
66559;SDS011;53413;49.878;8.142;2023-04-02T10:24:43;3.28;;;1.10;;
66559;SDS011;53413;49.878;8.142;2023-04-02T10:32:50;4.10;;;1.10;;
66559;SDS011;53413;49.878;8.142;2023-04-02T10:38:00;4.35;;;1.27;;
66559;SDS011;53413;49.878;8.142;2023-04-02T10:46:06;3.70;;;1.40;;
66559;SDS011;53413;49.878;8.142;2023-04-02T10:49:01;4.97;;;1.55;;
66559;SDS011;53413;49.878;8.142;2023-04-02T10:56:55;3.47;;;1.40;;
66559;SDS011;53413;49.878;8.142;2023-04-02T10:59:26;3.70;;;1.43;;
66559;SDS011;53413;49.878;8.142;2023-04-02T11:01:58;3.60;;;1.50;;
66559;SDS011;53413;49.878;8.142;2023-04-02T11:04:29;3.60;;;1.33;;
66559;SDS011;53413;49.878;8.142;2023-04-02T11:07:06;3.42;;;1.42;;
66559;SDS011;53413;49.878;8.142;2023-04-02T11:09:40;3.60;;;1.60;;
66559;SDS011;53413;49.878;8.142;2023-04-02T11:12:10;3.60;;;1.50;;
66559;SDS011;53413;49.878;8.142;2023-04-02T11:14:45;3.85;;;1.50;;
66559;SDS011;53413;49.878;8.142;2023-04-02T11:17:12;4.75;;;1.60;;
66559;SDS011;53413;49.878;8.142;2023-04-02T11:19:40;3.90;;;1.60;;
66559;SDS011;53413;49.878;8.142;2023-04-02T11:22:15;4.10;;;1.53;;
66559;SDS011;53413;49.878;8.142;2023-04-02T11:24:45;4.13;;;1.50;;
66559;SDS011;53413;49.878;8.142;2023-04-02T11:27:14;4.28;;;1.67;;
66559;SDS011;53413;49.878;8.142;2023-04-02T11:32:40;4.05;;;1.63;;
66559;SDS011;53413;49.878;8.142;2023-04-02T11:48:39;4.13;;;1.70;;
66559;SDS011;53413;49.878;8.142;2023-04-02T11:53:46;5.75;;;1.80;;
66559;SDS011;53413;49.878;8.142;2023-04-02T12:04:27;3.60;;;1.38;;
66559;SDS011;53413;49.878;8.142;2023-04-02T12:09:47;4.07;;;1.80;;
66559;SDS011;53413;49.878;8.142;2023-04-02T12:12:31;4.30;;;1.80;;
66559;SDS011;53413;49.878;8.142;2023-04-02T12:15:00;3.73;;;1.70;;
66559;SDS011;53413;49.878;8.142;2023-04-02T12:20:03;3.60;;;1.58;;
66559;SDS011;53413;49.878;8.142;2023-04-02T12:22:50;3.78;;;1.60;;
66559;SDS011;53413;49.878;8.142;2023-04-02T12:30:35;3.88;;;1.60;;
66559;SDS011;53413;49.878;8.142;2023-04-02T12:35:58;4.20;;;1.42;;
66559;SDS011;53413;49.878;8.142;2023-04-02T12:38:29;3.60;;;1.40;;
66559;SDS011;53413;49.878;8.142;2023-04-02T12:40:59;4.30;;;1.50;;
66559;SDS011;53413;49.878;8.142;2023-04-02T12:43:32;3.80;;;1.48;;
66559;SDS011;53413;49.878;8.142;2023-04-02T12:46:00;4.10;;;1.63;;
66559;SDS011;53413;49.878;8.142;2023-04-02T12:48:28;3.85;;;1.52;;
66559;SDS011;53413;49.878;8.142;2023-04-02T12:50:55;4.05;;;1.75;;
66559;SDS011;53413;49.878;8.142;2023-04-02T12:53:23;4.57;;;1.83;;
66559;SDS011;53413;49.878;8.142;2023-04-02T12:55:52;4.07;;;1.70;;
66559;SDS011;53413;49.878;8.142;2023-04-02T13:01:21;3.95;;;1.60;;
66559;SDS011;53413;49.878;8.142;2023-04-02T13:04:06;4.45;;;2.10;;
66559;SDS011;53413;49.878;8.142;2023-04-02T13:06:36;4.93;;;2.00;;
66559;SDS011;53413;49.878;8.142;2023-04-02T13:09:04;4.13;;;1.60;;
66559;SDS011;53413;49.878;8.142;2023-04-02T13:11:35;5.40;;;2.42;;
66559;SDS011;53413;49.878;8.142;2023-04-02T13:14:02;4.85;;;2.35;;
66559;SDS011;53413;49.878;8.142;2023-04-02T13:16:33;4.78;;;2.25;;
66559;SDS011;53413;49.878;8.142;2023-04-02T13:19:11;4.13;;;1.93;;
66559;SDS011;53413;49.878;8.142;2023-04-02T13:21:46;5.88;;;2.65;;
66559;SDS011;53413;49.878;8.142;2023-04-02T13:24:19;5.55;;;2.47;;
66559;SDS011;53413;49.878;8.142;2023-04-02T13:26:49;5.40;;;2.40;;
66559;SDS011;53413;49.878;8.142;2023-04-02T13:29:19;5.70;;;2.80;;
66559;SDS011;53413;49.878;8.142;2023-04-02T13:31:45;6.00;;;2.50;;
66559;SDS011;53413;49.878;8.142;2023-04-02T13:34:10;5.70;;;2.70;;
66559;SDS011;53413;49.878;8.142;2023-04-02T13:36:36;5.23;;;2.30;;
66559;SDS011;53413;49.878;8.142;2023-04-02T13:39:01;6.03;;;2.20;;
66559;SDS011;53413;49.878;8.142;2023-04-02T13:41:28;5.07;;;2.20;;
66559;SDS011;53413;49.878;8.142;2023-04-02T13:43:56;5.55;;;2.60;;
66559;SDS011;53413;49.878;8.142;2023-04-02T13:46:33;5.57;;;2.50;;
66559;SDS011;53413;49.878;8.142;2023-04-02T13:48:59;5.63;;;2.70;;
66559;SDS011;53413;49.878;8.142;2023-04-02T13:51:37;5.43;;;2.60;;
66559;SDS011;53413;49.878;8.142;2023-04-02T13:54:07;5.28;;;2.40;;
66559;SDS011;53413;49.878;8.142;2023-04-02T13:56:37;5.22;;;2.60;;
66559;SDS011;53413;49.878;8.142;2023-04-02T13:59:03;5.57;;;2.57;;
66559;SDS011;53413;49.878;8.142;2023-04-02T14:01:29;5.53;;;2.40;;
66559;SDS011;53413;49.878;8.142;2023-04-02T14:03:55;4.77;;;2.13;;
66559;SDS011;53413;49.878;8.142;2023-04-02T14:12:13;5.40;;;2.45;;
66559;SDS011;53413;49.878;8.142;2023-04-02T14:26:09;6.32;;;2.60;;
66559;SDS011;53413;49.878;8.142;2023-04-02T14:31:36;6.63;;;2.90;;
66559;SDS011;53413;49.878;8.142;2023-04-02T14:34:18;6.30;;;3.08;;
66559;SDS011;53413;49.878;8.142;2023-04-02T14:37:09;6.15;;;2.90;;
66559;SDS011;53413;49.878;8.142;2023-04-02T14:45:04;7.67;;;3.07;;
66559;SDS011;53413;49.878;8.142;2023-04-02T14:50:16;6.53;;;2.90;;
66559;SDS011;53413;49.878;8.142;2023-04-02T14:52:48;6.23;;;2.63;;
66559;SDS011;53413;49.878;8.142;2023-04-02T14:55:36;6.75;;;3.13;;
66559;SDS011;53413;49.878;8.142;2023-04-02T14:58:09;6.63;;;2.72;;
66559;SDS011;53413;49.878;8.142;2023-04-02T15:00:42;7.18;;;3.40;;
66559;SDS011;53413;49.878;8.142;2023-04-02T15:03:20;7.38;;;3.45;;
66559;SDS011;53413;49.878;8.142;2023-04-02T15:05:58;7.93;;;3.40;;
66559;SDS011;53413;49.878;8.142;2023-04-02T15:13:38;8.02;;;3.70;;
66559;SDS011;53413;49.878;8.142;2023-04-02T15:16:18;7.97;;;3.45;;
66559;SDS011;53413;49.878;8.142;2023-04-02T15:18:50;7.33;;;3.70;;
66559;SDS011;53413;49.878;8.142;2023-04-02T15:24:25;7.87;;;3.83;;
66559;SDS011;53413;49.878;8.142;2023-04-02T15:29:41;9.90;;;4.00;;
66559;SDS011;53413;49.878;8.142;2023-04-02T15:37:47;8.27;;;3.40;;
66559;SDS011;53413;49.878;8.142;2023-04-02T15:42:46;7.25;;;2.90;;
66559;SDS011;53413;49.878;8.142;2023-04-02T15:45:32;6.93;;;3.33;;
66559;SDS011;53413;49.878;8.142;2023-04-02T15:51:08;7.35;;;3.35;;
66559;SDS011;53413;49.878;8.142;2023-04-02T15:53:48;7.78;;;3.45;;
66559;SDS011;53413;49.878;8.142;2023-04-02T16:10:21;8.35;;;3.58;;
66559;SDS011;53413;49.878;8.142;2023-04-02T16:12:51;8.52;;;3.45;;
66559;SDS011;53413;49.878;8.142;2023-04-02T16:15:21;6.97;;;3.13;;
66559;SDS011;53413;49.878;8.142;2023-04-02T16:18:16;7.60;;;3.72;;
66559;SDS011;53413;49.878;8.142;2023-04-02T16:21:03;8.50;;;3.88;;
66559;SDS011;53413;49.878;8.142;2023-04-02T16:23:30;8.18;;;3.92;;
66559;SDS011;53413;49.878;8.142;2023-04-02T16:26:19;9.95;;;4.10;;
66559;SDS011;53413;49.878;8.142;2023-04-02T16:31:31;8.27;;;3.60;;
66559;SDS011;53413;49.878;8.142;2023-04-02T16:34:06;8.52;;;3.80;;
66559;SDS011;53413;49.878;8.142;2023-04-02T16:36:46;9.00;;;3.80;;
66559;SDS011;53413;49.878;8.142;2023-04-02T16:49:36;8.97;;;3.47;;
66559;SDS011;53413;49.878;8.142;2023-04-02T16:57:41;6.68;;;2.58;;
66559;SDS011;53413;49.878;8.142;2023-04-02T17:00:32;6.78;;;3.00;;
66559;SDS011;53413;49.878;8.142;2023-04-02T17:05:52;6.68;;;3.33;;
66559;SDS011;53413;49.878;8.142;2023-04-02T17:13:56;6.83;;;3.03;;
66559;SDS011;53413;49.878;8.142;2023-04-02T17:16:31;6.28;;;2.90;;
66559;SDS011;53413;49.878;8.142;2023-04-02T17:19:08;8.40;;;3.10;;
66559;SDS011;53413;49.878;8.142;2023-04-02T17:21:45;8.85;;;3.20;;
66559;SDS011;53413;49.878;8.142;2023-04-02T17:24:23;7.80;;;3.00;;
66559;SDS011;53413;49.878;8.142;2023-04-02T17:26:53;6.20;;;2.67;;
66559;SDS011;53413;49.878;8.142;2023-04-02T17:29:24;7.07;;;3.00;;
66559;SDS011;53413;49.878;8.142;2023-04-02T17:32:02;8.48;;;3.50;;
66559;SDS011;53413;49.878;8.142;2023-04-02T17:34:34;7.85;;;3.63;;
66559;SDS011;53413;49.878;8.142;2023-04-02T17:37:18;7.13;;;3.43;;
66559;SDS011;53413;49.878;8.142;2023-04-02T17:40:24;7.80;;;3.55;;
66559;SDS011;53413;49.878;8.142;2023-04-02T17:43:41;8.25;;;3.70;;
66559;SDS011;53413;49.878;8.142;2023-04-02T17:46:14;7.57;;;3.23;;
66559;SDS011;53413;49.878;8.142;2023-04-02T17:48:46;6.47;;;2.90;;
66559;SDS011;53413;49.878;8.142;2023-04-02T17:54:12;8.05;;;3.25;;
66559;SDS011;53413;49.878;8.142;2023-04-02T17:59:39;8.53;;;3.03;;
66559;SDS011;53413;49.878;8.142;2023-04-02T18:13:03;7.60;;;3.30;;
66559;SDS011;53413;49.878;8.142;2023-04-02T18:26:13;6.72;;;3.00;;
66559;SDS011;53413;49.878;8.142;2023-04-02T18:31:39;8.52;;;3.88;;
66559;SDS011;53413;49.878;8.142;2023-04-02T18:37:13;9.80;;;4.67;;
66559;SDS011;53413;49.878;8.142;2023-04-02T18:39:47;8.32;;;3.55;;
66559;SDS011;53413;49.878;8.142;2023-04-02T18:50:37;8.47;;;3.43;;
66559;SDS011;53413;49.878;8.142;2023-04-02T18:53:17;9.50;;;3.83;;
66559;SDS011;53413;49.878;8.142;2023-04-02T18:56:00;7.88;;;3.60;;
66559;SDS011;53413;49.878;8.142;2023-04-02T19:01:13;8.15;;;3.70;;
66559;SDS011;53413;49.878;8.142;2023-04-02T19:03:48;7.73;;;3.67;;
66559;SDS011;53413;49.878;8.142;2023-04-02T19:06:19;8.23;;;3.90;;
66559;SDS011;53413;49.878;8.142;2023-04-02T19:08:57;10.27;;;3.95;;
66559;SDS011;53413;49.878;8.142;2023-04-02T19:11:25;7.93;;;3.65;;
66559;SDS011;53413;49.878;8.142;2023-04-02T19:14:01;7.63;;;3.60;;
66559;SDS011;53413;49.878;8.142;2023-04-02T19:27:21;8.57;;;3.40;;
66559;SDS011;53413;49.878;8.142;2023-04-02T19:35:45;7.95;;;3.20;;
66559;SDS011;53413;49.878;8.142;2023-04-02T19:43:58;8.73;;;3.40;;
66559;SDS011;53413;49.878;8.142;2023-04-02T19:46:24;6.65;;;3.25;;
66559;SDS011;53413;49.878;8.142;2023-04-02T19:51:37;6.93;;;3.13;;
66559;SDS011;53413;49.878;8.142;2023-04-02T19:54:02;6.85;;;2.90;;
66559;SDS011;53413;49.878;8.142;2023-04-02T19:56:28;6.97;;;2.90;;
66559;SDS011;53413;49.878;8.142;2023-04-02T19:58:54;6.20;;;3.00;;
66559;SDS011;53413;49.878;8.142;2023-04-02T20:01:19;7.47;;;3.00;;
66559;SDS011;53413;49.878;8.142;2023-04-02T20:03:45;5.10;;;2.42;;
66559;SDS011;53413;49.878;8.142;2023-04-02T20:06:11;6.03;;;2.53;;
66559;SDS011;53413;49.878;8.142;2023-04-02T20:08:36;7.57;;;3.03;;
66559;SDS011;53413;49.878;8.142;2023-04-02T20:11:02;7.40;;;3.22;;
66559;SDS011;53413;49.878;8.142;2023-04-02T20:13:28;7.73;;;3.10;;
66559;SDS011;53413;49.878;8.142;2023-04-02T20:15:57;6.63;;;3.20;;
66559;SDS011;53413;49.878;8.142;2023-04-02T20:18:23;6.57;;;2.72;;
66559;SDS011;53413;49.878;8.142;2023-04-02T20:20:50;6.30;;;2.78;;
66559;SDS011;53413;49.878;8.142;2023-04-02T20:23:15;5.27;;;2.53;;
66559;SDS011;53413;49.878;8.142;2023-04-02T20:25:44;5.93;;;2.50;;
66559;SDS011;53413;49.878;8.142;2023-04-02T20:28:11;6.53;;;2.72;;
66559;SDS011;53413;49.878;8.142;2023-04-02T20:30:37;6.43;;;3.10;;
66559;SDS011;53413;49.878;8.142;2023-04-02T20:33:02;6.73;;;2.60;;
66559;SDS011;53413;49.878;8.142;2023-04-02T20:35:27;5.77;;;2.70;;
66559;SDS011;53413;49.878;8.142;2023-04-02T20:37:53;6.63;;;2.83;;
66559;SDS011;53413;49.878;8.142;2023-04-02T20:40:19;7.40;;;2.90;;
66559;SDS011;53413;49.878;8.142;2023-04-02T20:42:47;6.97;;;2.90;;
66559;SDS011;53413;49.878;8.142;2023-04-02T20:45:12;7.40;;;2.95;;
66559;SDS011;53413;49.878;8.142;2023-04-02T20:47:38;6.07;;;2.77;;
66559;SDS011;53413;49.878;8.142;2023-04-02T20:50:03;5.63;;;2.57;;
66559;SDS011;53413;49.878;8.142;2023-04-02T20:52:31;6.40;;;2.70;;
66559;SDS011;53413;49.878;8.142;2023-04-02T20:54:56;6.50;;;2.30;;